Time;durP1;ratioP1;P1;durP2;ratioP2;P2;SDS_P1;SDS_P2;PMS_P1;PMS_P2;Temp;Humidity;BMP_temperature;BMP_pressure;BME280_temperature;BME280_humidity;BME280_pressure;Samples;Min_cycle;Max_cycle;Signal;HPM_P1;HPM_P2
2020/12/20 00:00:29;;;;;;;86.78;30.63;;;4.80;99.90;;;;;;4993870;28;20080;-74
2020/12/20 00:02:56;;;;;;;80.60;31.20;;;4.80;99.90;;;;;;4993683;28;20018;-74
2020/12/20 00:05:23;;;;;;;80.90;29.58;;;4.80;99.90;;;;;;4976151;28;20114;-74
2020/12/20 00:07:50;;;;;;;82.93;31.13;;;4.80;99.90;;;;;;4993293;28;20034;-74
2020/12/20 00:10:18;;;;;;;78.07;29.05;;;4.80;99.90;;;;;;4993351;28;20034;-74
2020/12/20 00:12:44;;;;;;;89.28;29.90;;;4.80;99.90;;;;;;4993475;28;20101;-75
2020/12/20 00:15:10;;;;;;;92.03;30.00;;;4.80;99.90;;;;;;4991911;28;20494;-74
2020/12/20 00:17:36;;;;;;;82.57;30.02;;;4.70;99.90;;;;;;4993329;28;20138;-74
2020/12/20 00:20:05;;;;;;;85.53;29.92;;;4.80;99.90;;;;;;4993331;28;20049;-74
2020/12/20 00:22:31;;;;;;;97.43;32.83;;;4.70;99.90;;;;;;4993501;28;20376;-74
2020/12/20 00:24:57;;;;;;;111.30;47.08;;;4.70;99.90;;;;;;4993500;28;20030;-74
2020/12/20 00:27:24;;;;;;;82.35;30.27;;;4.70;99.90;;;;;;4993158;28;20097;-75
2020/12/20 00:29:50;;;;;;;86.55;30.75;;;4.70;99.90;;;;;;4993145;28;20458;-74
2020/12/20 00:32:16;;;;;;;97.85;30.98;;;4.70;99.90;;;;;;4993305;28;20045;-74
2020/12/20 00:34:43;;;;;;;98.25;32.40;;;4.70;99.90;;;;;;4992908;28;20386;-75
2020/12/20 00:37:08;;;;;;;96.00;31.38;;;4.70;99.90;;;;;;4992967;28;20124;-74
2020/12/20 00:39:35;;;;;;;89.57;32.28;;;4.70;99.90;;;;;;4993177;28;20481;-74
2020/12/20 00:42:03;;;;;;;93.03;32.30;;;4.70;99.90;;;;;;4993012;28;20096;-74
2020/12/20 00:44:29;;;;;;;96.60;32.35;;;4.70;99.90;;;;;;4993628;28;20093;-74
2020/12/20 00:46:56;;;;;;;94.32;33.08;;;4.70;99.90;;;;;;4994135;28;20063;-74
2020/12/20 00:49:22;;;;;;;92.15;30.73;;;4.70;99.90;;;;;;4993088;28;20030;-75
2020/12/20 00:51:48;;;;;;;92.90;31.65;;;4.70;99.90;;;;;;4993060;28;20030;-74
2020/12/20 00:54:14;;;;;;;103.28;31.35;;;4.70;99.90;;;;;;4993041;28;20030;-73
2020/12/20 00:56:40;;;;;;;101.35;32.58;;;4.70;99.90;;;;;;4992731;28;20050;-73
2020/12/20 00:59:05;;;;;;;102.15;33.17;;;4.70;99.90;;;;;;4992751;28;20479;-74
2020/12/20 01:01:31;;;;;;;93.55;33.05;;;4.60;99.90;;;;;;4992640;28;20425;-74
2020/12/20 01:03:57;;;;;;;95.05;31.60;;;4.60;99.90;;;;;;4992528;28;20106;-74
2020/12/20 01:06:24;;;;;;;98.90;30.15;;;4.60;99.90;;;;;;4992312;28;20097;-73
2020/12/20 01:08:52;;;;;;;87.30;29.13;;;4.70;99.90;;;;;;4992537;28;20014;-73
2020/12/20 01:11:19;;;;;;;82.03;30.50;;;4.60;99.90;;;;;;4992356;28;20074;-73
2020/12/20 01:13:47;;;;;;;78.65;29.55;;;4.70;99.90;;;;;;4992190;28;20129;-73
2020/12/20 01:16:21;;;;;;;79.28;27.63;;;4.70;99.90;;;;;;4992485;28;20098;-73
2020/12/20 01:18:47;;;;;;;79.18;29.08;;;4.70;99.90;;;;;;4991104;28;20031;-74
2020/12/20 01:21:14;;;;;;;82.07;30.08;;;4.70;99.90;;;;;;4992459;28;20027;-74
2020/12/20 01:23:40;;;;;;;79.18;28.58;;;4.80;99.90;;;;;;4992522;28;20353;-76
2020/12/20 01:26:06;;;;;;;73.35;26.52;;;4.80;99.90;;;;;;4992786;28;20034;-73
2020/12/20 01:28:33;;;;;;;72.40;27.20;;;4.80;99.90;;;;;;4975181;28;20037;-74
2020/12/20 01:31:00;;;;;;;72.72;26.92;;;4.80;99.90;;;;;;4992526;28;20031;-74
2020/12/20 01:33:26;;;;;;;75.93;30.58;;;4.80;99.90;;;;;;4992584;28;20058;-73
2020/12/20 01:35:51;;;;;;;69.85;26.58;;;4.90;99.90;;;;;;4992396;28;20030;-73
2020/12/20 01:38:18;;;;;;;77.93;28.27;;;4.90;99.90;;;;;;4992316;28;20027;-74
2020/12/20 01:40:53;;;;;;;72.57;28.27;;;4.90;99.90;;;;;;4992125;28;20022;-74
2020/12/20 01:43:19;;;;;;;78.93;29.05;;;4.90;99.90;;;;;;4974798;28;20443;-73
2020/12/20 01:45:46;;;;;;;69.05;27.25;;;4.90;99.90;;;;;;4990925;28;20054;-74
2020/12/20 01:48:12;;;;;;;71.55;27.13;;;5.00;99.90;;;;;;4992302;28;20085;-73
2020/12/20 01:50:38;;;;;;;68.53;26.38;;;4.90;99.90;;;;;;4990735;28;20027;-74
2020/12/20 01:53:05;;;;;;;66.45;26.35;;;5.00;99.90;;;;;;4992055;28;20023;-74
2020/12/20 01:55:32;;;;;;;69.50;25.92;;;5.00;99.90;;;;;;4992203;28;20022;-74
2020/12/20 01:57:58;;;;;;;78.22;26.30;;;5.00;99.90;;;;;;4983296;28;20080;-74
2020/12/20 02:00:24;;;;;;;73.43;25.55;;;5.00;99.90;;;;;;4981462;28;20022;-73
2020/12/20 02:02:49;;;;;;;70.55;27.15;;;5.00;99.90;;;;;;4980435;28;20018;-73
2020/12/20 02:05:15;;;;;;;62.85;25.02;;;5.00;99.90;;;;;;4984267;28;20109;-73
2020/12/20 02:07:41;;;;;;;75.70;26.73;;;5.00;99.90;;;;;;4983065;28;20496;-73
2020/12/20 02:10:07;;;;;;;66.93;26.05;;;5.00;99.90;;;;;;4984474;28;20064;-73
2020/12/20 02:12:33;;;;;;;109.88;27.38;;;5.00;99.90;;;;;;4985821;28;20108;-74
2020/12/20 02:14:59;;;;;;;60.50;24.92;;;5.00;99.90;;;;;;4983995;28;20057;-72
2020/12/20 02:17:25;;;;;;;69.82;25.48;;;5.00;99.90;;;;;;4984496;28;20376;-73
2020/12/20 02:19:50;;;;;;;78.20;27.35;;;5.00;99.90;;;;;;4985556;28;20031;-73
2020/12/20 02:22:16;;;;;;;73.30;26.15;;;5.00;99.90;;;;;;4981063;28;20061;-74
2020/12/20 02:24:43;;;;;;;83.85;26.33;;;5.00;99.90;;;;;;4967461;28;20022;-74
2020/12/20 02:27:09;;;;;;;72.63;27.27;;;5.00;99.90;;;;;;4980743;28;20492;-73
2020/12/20 02:29:35;;;;;;;73.32;27.48;;;5.00;99.90;;;;;;4976060;28;20102;-74
2020/12/20 02:32:01;;;;;;;81.25;26.98;;;5.00;99.90;;;;;;4976012;28;20154;-74
2020/12/20 02:34:27;;;;;;;67.68;26.85;;;5.00;99.90;;;;;;4975990;28;20492;-74
2020/12/20 02:36:53;;;;;;;80.03;26.92;;;5.00;99.90;;;;;;4975717;28;20027;-74
2020/12/20 02:39:18;;;;;;;76.43;27.55;;;5.00;99.90;;;;;;4975878;28;20369;-74
2020/12/20 02:41:44;;;;;;;77.75;27.80;;;5.00;99.90;;;;;;4975842;28;20062;-74
2020/12/20 02:44:10;;;;;;;77.68;27.63;;;5.00;99.90;;;;;;4975841;28;20048;-74
2020/12/20 02:46:36;;;;;;;79.50;28.70;;;5.00;99.90;;;;;;4974757;28;20030;-74
2020/12/20 02:49:02;;;;;;;71.97;27.15;;;5.00;99.90;;;;;;4975986;28;20026;-74
2020/12/20 02:51:28;;;;;;;64.07;26.35;;;5.00;99.90;;;;;;4975780;28;20021;-74
2020/12/20 02:53:54;;;;;;;70.22;26.25;;;5.00;99.90;;;;;;4974510;28;20484;-74
2020/12/20 02:56:20;;;;;;;70.05;26.48;;;5.00;99.90;;;;;;4975477;28;20023;-74
2020/12/20 02:58:49;;;;;;;74.13;25.38;;;5.00;99.90;;;;;;4975509;28;20018;-75
2020/12/20 03:01:15;;;;;;;62.70;23.70;;;5.00;99.90;;;;;;4975434;28;20022;-72
2020/12/20 03:03:41;;;;;;;60.22;25.33;;;5.00;99.90;;;;;;4974361;28;20460;-73
2020/12/20 03:06:07;;;;;;;63.10;25.77;;;5.00;99.90;;;;;;4975427;28;20023;-73
2020/12/20 03:08:33;;;;;;;74.88;26.75;;;5.00;99.90;;;;;;4975463;28;20031;-73
2020/12/20 03:10:58;;;;;;;66.05;25.80;;;5.00;99.90;;;;;;4975325;28;20026;-74
2020/12/20 03:13:24;;;;;;;61.00;24.95;;;5.00;99.90;;;;;;4975252;28;20050;-74
2020/12/20 03:15:50;;;;;;;66.28;25.65;;;5.00;99.90;;;;;;4974310;28;20031;-75
2020/12/20 03:18:16;;;;;;;63.13;24.08;;;5.00;99.90;;;;;;4975056;28;20035;-75
2020/12/20 03:20:41;;;;;;;67.85;25.38;;;5.00;99.90;;;;;;4975354;28;20074;-75
2020/12/20 03:23:07;;;;;;;73.38;24.42;;;5.00;99.90;;;;;;4975204;28;20107;-75
2020/12/20 03:25:33;;;;;;;70.38;24.77;;;5.00;99.90;;;;;;4975148;28;20050;-75
2020/12/20 03:27:59;;;;;;;56.85;22.65;;;5.00;99.90;;;;;;4957789;28;20389;-75
2020/12/20 03:30:26;;;;;;;67.20;23.60;;;5.10;99.90;;;;;;4975127;28;20039;-74
2020/12/20 03:32:52;;;;;;;63.63;24.52;;;5.00;99.90;;;;;;4975160;28;20026;-74
2020/12/20 03:35:18;;;;;;;78.80;24.60;;;5.00;99.90;;;;;;4975240;28;20019;-74
2020/12/20 03:38:02;;;;;;;66.35;23.95;;;5.00;99.90;;;;;;4974931;28;20062;-74
2020/12/20 03:40:28;;;;;;;57.75;22.65;;;5.10;99.90;;;;;;4975030;28;20489;-74
2020/12/20 03:42:54;;;;;;;60.63;23.65;;;5.10;99.90;;;;;;4974852;28;20058;-74
2020/12/20 03:45:20;;;;;;;58.67;23.42;;;5.00;99.90;;;;;;4973609;28;20019;-74
2020/12/20 03:47:46;;;;;;;63.65;23.42;;;5.00;99.90;;;;;;4974708;28;20070;-74
2020/12/20 03:50:12;;;;;;;64.95;24.48;;;5.00;99.90;;;;;;4974691;28;20054;-74
2020/12/20 03:52:38;;;;;;;69.70;32.40;;;5.00;99.90;;;;;;4974595;28;20469;-73
2020/12/20 03:55:04;;;;;;;66.43;28.45;;;5.00;99.90;;;;;;4974420;28;20027;-75
2020/12/20 03:57:30;;;;;;;64.80;27.10;;;5.10;99.90;;;;;;4973259;28;20025;-75
2020/12/20 03:59:59;;;;;;;60.08;25.02;;;5.10;99.90;;;;;;4974494;28;20040;-75
2020/12/20 04:02:26;;;;;;;61.78;25.50;;;5.10;99.90;;;;;;4974217;28;20019;-75
2020/12/20 04:04:52;;;;;;;56.28;24.60;;;5.10;99.90;;;;;;4974324;28;20058;-75
2020/12/20 04:07:18;;;;;;;71.28;30.73;;;5.20;99.90;;;;;;4974594;28;20055;-75
2020/12/20 04:09:44;;;;;;;80.63;31.70;;;5.10;99.90;;;;;;4974695;28;20077;-75
2020/12/20 04:12:09;;;;;;;66.30;27.10;;;5.20;99.90;;;;;;4974086;28;20050;-75
2020/12/20 04:14:35;;;;;;;62.65;26.70;;;5.20;99.90;;;;;;4974061;28;20540;-75
2020/12/20 04:17:01;;;;;;;65.47;26.17;;;5.20;99.90;;;;;;4974021;28;20481;-73
2020/12/20 04:19:27;;;;;;;59.88;24.95;;;5.20;99.90;;;;;;4974138;28;20082;-73
2020/12/20 04:21:53;;;;;;;74.07;25.88;;;5.20;99.90;;;;;;4973988;28;20376;-74
2020/12/20 04:24:19;;;;;;;64.25;24.67;;;5.20;99.90;;;;;;4974044;28;20031;-73
2020/12/20 04:26:44;;;;;;;68.68;26.60;;;5.10;99.90;;;;;;4973922;28;20023;-73
2020/12/20 04:29:11;;;;;;;60.25;23.92;;;5.10;99.90;;;;;;4973726;28;20389;-74
2020/12/20 04:31:37;;;;;;;60.10;22.75;;;5.10;99.90;;;;;;4973901;28;20417;-73
2020/12/20 04:34:03;;;;;;;59.05;23.48;;;5.10;99.90;;;;;;4973958;28;20031;-74
2020/12/20 04:36:29;;;;;;;61.35;23.77;;;5.10;99.90;;;;;;4973709;28;20061;-74
2020/12/20 04:38:56;;;;;;;61.58;23.08;;;5.10;99.90;;;;;;4973979;28;20031;-74
2020/12/20 04:41:23;;;;;;;60.53;24.60;;;5.10;99.90;;;;;;4973712;28;20018;-74
2020/12/20 04:43:49;;;;;;;50.88;23.13;;;5.10;99.90;;;;;;4973722;28;20050;-74
2020/12/20 04:46:19;;;;;;;62.20;24.80;;;5.10;99.90;;;;;;4973501;28;20018;-74
2020/12/20 04:48:47;;;;;;;56.90;22.73;;;5.10;99.90;;;;;;4973745;28;20440;-74
2020/12/20 04:51:13;;;;;;;56.50;23.30;;;5.10;99.90;;;;;;4972370;28;20523;-74
2020/12/20 04:53:39;;;;;;;54.22;23.08;;;5.10;99.90;;;;;;4972277;28;20097;-74
2020/12/20 04:56:07;;;;;;;54.63;23.05;;;5.10;99.90;;;;;;4973608;28;20035;-73
2020/12/20 04:58:34;;;;;;;53.70;22.42;;;5.10;99.90;;;;;;4973494;28;20026;-74
2020/12/20 05:01:00;;;;;;;51.47;22.58;;;5.10;99.90;;;;;;4973428;28;20384;-75
2020/12/20 05:03:27;;;;;;;54.65;23.35;;;5.10;99.90;;;;;;4973682;28;20486;-74
2020/12/20 05:05:53;;;;;;;63.22;24.60;;;5.10;99.90;;;;;;4973453;28;20707;-74
2020/12/20 05:08:23;;;;;;;54.90;24.52;;;5.10;99.90;;;;;;4973049;28;20023;-74
2020/12/20 05:10:50;;;;;;;69.70;25.23;;;5.10;99.90;;;;;;4973051;28;20027;-74
2020/12/20 05:13:17;;;;;;;61.65;25.02;;;5.10;99.90;;;;;;4973107;28;20069;-74
2020/12/20 05:15:43;;;;;;;64.70;23.88;;;5.10;99.90;;;;;;4973375;28;20045;-74
2020/12/20 05:18:11;;;;;;;61.95;25.27;;;5.10;99.90;;;;;;4974093;28;20041;-74
2020/12/20 05:20:45;;;;;;;65.13;23.45;;;5.10;99.90;;;;;;4973894;28;20091;-74
2020/12/20 05:23:13;;;;;;;60.97;23.88;;;5.10;99.90;;;;;;4974136;28;20057;-75
2020/12/20 05:25:40;;;;;;;61.90;25.33;;;5.10;99.90;;;;;;4973461;28;20041;-75
2020/12/20 05:28:15;;;;;;;63.75;24.45;;;5.10;99.90;;;;;;4974068;28;20416;-74
2020/12/20 05:30:43;;;;;;;83.72;36.95;;;5.10;99.90;;;;;;4972885;28;20093;-75
2020/12/20 05:33:10;;;;;;;106.45;47.08;;;5.10;99.90;;;;;;4973962;28;20023;-74
2020/12/20 05:35:37;;;;;;;119.90;49.33;;;5.10;99.90;;;;;;4972347;28;20370;-75
2020/12/20 05:38:04;;;;;;;114.20;54.40;;;5.10;99.90;;;;;;4972800;28;20023;-75
2020/12/20 05:40:35;;;;;;;113.25;55.00;;;5.10;99.90;;;;;;4974516;28;20488;-75
2020/12/20 05:43:07;;;;;;;120.53;49.10;;;5.00;99.90;;;;;;4977123;28;20037;-75
2020/12/20 05:45:35;;;;;;;105.07;47.17;;;5.00;99.90;;;;;;4977028;28;20047;-75
2020/12/20 05:48:14;;;;;;;107.85;52.88;;;5.00;99.90;;;;;;4976899;28;20030;-75
2020/12/20 05:50:52;;;;;;;98.57;44.78;;;5.00;99.90;;;;;;4976715;28;20029;-75
2020/12/20 05:53:22;;;;;;;86.00;40.45;;;5.00;99.90;;;;;;4976775;28;20086;-75
2020/12/20 05:55:48;;;;;;;69.65;32.35;;;5.00;99.90;;;;;;4976396;28;20031;-74
2020/12/20 05:58:15;;;;;;;70.60;33.13;;;5.00;99.90;;;;;;4976379;28;20027;-76
2020/12/20 06:00:42;;;;;;;79.32;30.83;;;5.00;99.90;;;;;;4976753;28;20031;-76
2020/12/20 06:03:09;;;;;;;81.70;30.08;;;5.00;99.90;;;;;;4975571;28;20018;-75
2020/12/20 06:05:39;;;;;;;60.80;27.55;;;5.00;99.90;;;;;;4958946;28;20036;-75
2020/12/20 06:08:16;;;;;;;62.00;24.23;;;5.00;99.90;;;;;;4976402;28;20035;-75
2020/12/20 06:10:46;;;;;;;59.08;23.88;;;5.00;99.90;;;;;;4974781;28;20035;-74
2020/12/20 06:13:20;;;;;;;49.58;21.35;;;5.00;99.90;;;;;;4976381;28;20026;-76
2020/12/20 06:15:54;;;;;;;57.78;23.55;;;5.00;99.90;;;;;;4976483;28;20114;-76
2020/12/20 06:18:28;;;;;;;58.55;22.35;;;5.00;99.90;;;;;;4976369;28;20034;-76
2020/12/20 06:21:01;;;;;;;69.07;23.20;;;5.00;99.90;;;;;;4976302;28;20027;-76
2020/12/20 06:23:31;;;;;;;54.38;22.90;;;5.00;99.90;;;;;;4974941;28;20030;-76
2020/12/20 06:25:59;;;;;;;53.28;20.55;;;5.00;99.90;;;;;;4975809;28;20037;-76
2020/12/20 06:28:27;;;;;;;59.60;23.23;;;5.00;99.90;;;;;;4976110;28;20025;-77
2020/12/20 06:30:54;;;;;;;54.55;22.67;;;5.00;99.90;;;;;;4974878;28;20023;-77
2020/12/20 06:33:45;;;;;;;53.63;20.75;;;5.00;99.90;;;;;;4976274;28;20023;-76
2020/12/20 06:36:13;;;;;;;52.90;20.85;;;5.00;99.90;;;;;;4974384;28;20039;-77
2020/12/20 06:38:39;;;;;;;49.40;20.77;;;5.00;99.90;;;;;;4975752;28;20027;-77
2020/12/20 06:41:06;;;;;;;47.35;20.73;;;5.00;99.90;;;;;;4975829;28;20833;-77
2020/12/20 06:43:37;;;;;;;46.97;19.02;;;5.00;99.90;;;;;;4958097;28;20033;-76
2020/12/20 06:46:04;;;;;;;51.38;20.63;;;5.10;99.90;;;;;;4975845;28;20018;-76
2020/12/20 06:48:32;;;;;;;51.03;21.30;;;5.00;99.90;;;;;;4975729;28;20026;-76
2020/12/20 06:50:58;;;;;;;50.25;20.77;;;5.00;99.90;;;;;;4975307;28;20469;-77
2020/12/20 06:53:47;;;;;;;48.80;20.83;;;5.00;99.90;;;;;;4975287;28;20045;-76
2020/12/20 06:56:19;;;;;;;71.63;26.80;;;5.00;99.90;;;;;;4975367;28;20054;-76
2020/12/20 06:58:45;;;;;;;52.95;23.58;;;5.10;99.90;;;;;;4958242;28;20481;-77
2020/12/20 07:01:30;;;;;;;61.65;24.83;;;5.10;99.90;;;;;;4975379;28;20358;-77
2020/12/20 07:03:56;;;;;;;61.85;26.25;;;5.10;99.90;;;;;;4975208;28;20023;-77
2020/12/20 07:06:22;;;;;;;66.85;26.52;;;5.10;99.90;;;;;;4975398;28;20030;-76
2020/12/20 07:09:07;;;;;;;56.30;23.92;;;5.10;99.90;;;;;;4975455;28;20026;-76
2020/12/20 07:11:51;;;;;;;65.15;23.95;;;5.10;99.90;;;;;;4975314;28;20030;-76
2020/12/20 07:14:22;;;;;;;69.10;26.02;;;5.10;99.90;;;;;;4975148;28;20481;-77
2020/12/20 07:16:48;;;;;;;86.95;36.65;;;5.20;99.90;;;;;;4975315;28;20476;-79
2020/12/20 07:19:25;;;;;;;85.63;36.85;;;5.10;99.90;;;;;;4975133;28;20121;-77
2020/12/20 07:21:54;;;;;;;92.60;34.67;;;5.10;99.90;;;;;;4973689;28;20027;-77
2020/12/20 07:24:29;;;;;;;52.40;21.10;;;5.20;99.90;;;;;;4957210;28;20358;-76
2020/12/20 07:26:59;;;;;;;63.88;24.30;;;5.20;99.90;;;;;;4974712;28;20031;-75
2020/12/20 07:29:25;;;;;;;70.95;26.15;;;5.10;99.90;;;;;;4974624;28;20150;-77
2020/12/20 07:31:54;;;;;;;65.53;22.73;;;5.10;99.90;;;;;;4974757;28;20545;-75
2020/12/20 07:34:20;;;;;;;54.72;23.48;;;5.10;99.90;;;;;;4974664;28;20133;-75
2020/12/20 07:36:46;;;;;;;42.65;20.05;;;5.10;99.90;;;;;;4974676;28;20503;-76
2020/12/20 07:39:12;;;;;;;42.78;19.70;;;5.10;99.90;;;;;;4974951;28;20102;-75
2020/12/20 07:41:38;;;;;;;47.78;20.38;;;5.20;99.90;;;;;;4974985;28;20090;-76
2020/12/20 07:44:08;;;;;;;41.85;19.65;;;5.20;99.90;;;;;;4974553;28;20045;-75
2020/12/20 07:46:35;;;;;;;49.97;21.55;;;5.20;99.90;;;;;;4973495;28;20047;-77
2020/12/20 07:49:06;;;;;;;51.22;22.90;;;5.20;99.90;;;;;;4973083;28;20053;-75
2020/12/20 07:51:32;;;;;;;44.05;20.42;;;5.30;99.90;;;;;;4972966;28;20027;-78
2020/12/20 07:54:00;;;;;;;49.33;22.75;;;5.30;99.90;;;;;;4974838;28;20022;-77
2020/12/20 07:56:30;;;;;;;50.95;22.77;;;5.30;99.90;;;;;;4973298;28;20085;-76
2020/12/20 07:58:58;;;;;;;57.67;25.23;;;5.40;99.90;;;;;;4974557;28;20050;-76
2020/12/20 08:01:24;;;;;;;46.00;21.33;;;5.40;99.90;;;;;;4973937;28;20085;-77
2020/12/20 08:04:10;;;;;;;49.40;24.33;;;5.40;99.90;;;;;;4977952;28;20026;-77
2020/12/20 08:06:41;;;;;;;49.85;24.20;;;5.40;99.90;;;;;;4993260;28;20109;-77
2020/12/20 08:09:07;;;;;;;54.03;27.08;;;5.50;99.90;;;;;;4994432;28;20050;-79
2020/12/20 08:11:33;;;;;;;50.72;24.38;;;5.50;99.90;;;;;;4994782;28;20046;-80
2020/12/20 08:14:14;;;;;;;41.92;21.70;;;5.50;99.90;;;;;;4994583;28;20126;-79
2020/12/20 08:16:41;;;;;;;44.45;22.48;;;5.50;99.90;;;;;;4994133;28;20026;-79
2020/12/20 08:19:20;;;;;;;42.13;20.80;;;5.50;99.90;;;;;;4993236;28;20397;-79
2020/12/20 08:22:06;;;;;;;45.17;19.95;;;5.50;99.90;;;;;;4994448;28;20046;-79
2020/12/20 08:24:37;;;;;;;39.58;20.35;;;5.60;99.90;;;;;;4993039;28;20042;-79
2020/12/20 08:27:23;;;;;;;43.17;20.43;;;5.60;99.90;;;;;;4994507;28;20018;-80
2020/12/20 08:29:53;;;;;;;43.40;20.15;;;5.60;99.90;;;;;;4994758;28;20266;-81
2020/12/20 08:32:21;;;;;;;39.20;19.70;;;5.60;99.90;;;;;;4994540;28;20104;-81
2020/12/20 08:34:48;;;;;;;52.35;22.95;;;5.70;99.90;;;;;;4994483;28;20026;-76
2020/12/20 08:37:16;;;;;;;42.08;20.40;;;5.70;99.90;;;;;;4992802;28;20030;-77
2020/12/20 08:39:54;;;;;;;40.28;22.23;;;5.70;99.90;;;;;;4994050;28;20034;-76
2020/12/20 08:42:20;;;;;;;53.13;27.58;;;5.70;99.90;;;;;;4975384;28;20115;-76
2020/12/20 08:44:48;;;;;;;40.15;20.63;;;5.70;99.90;;;;;;4973294;28;20102;-77
2020/12/20 08:47:19;;;;;;;44.92;21.98;;;5.70;99.90;;;;;;4973520;28;20587;-76
2020/12/20 08:50:00;;;;;;;35.28;19.75;;;5.70;99.90;;;;;;4973184;28;20073;-77
2020/12/20 08:52:28;;;;;;;39.25;21.65;;;5.70;99.90;;;;;;4973347;28;20381;-76
2020/12/20 08:54:55;;;;;;;38.42;20.25;;;5.70;99.90;;;;;;4971803;28;20117;-76
2020/12/20 08:57:41;;;;;;;40.08;21.00;;;5.70;99.90;;;;;;4955437;28;20473;-77
2020/12/20 09:00:13;;;;;;;49.67;26.10;;;5.70;99.90;;;;;;4971703;28;20101;-77
2020/12/20 09:02:40;;;;;;;45.42;22.88;;;5.80;99.90;;;;;;4973075;28;20023;-77
2020/12/20 09:05:13;;;;;;;41.28;20.77;;;5.80;99.90;;;;;;4973272;28;20110;-76
2020/12/20 09:07:47;;;;;;;37.03;19.20;;;5.80;99.90;;;;;;4983004;28;20392;-77
2020/12/20 09:10:30;;;;;;;43.78;20.27;;;5.90;99.90;;;;;;4992675;28;20022;-77
2020/12/20 09:13:07;;;;;;;44.75;22.00;;;5.90;99.90;;;;;;4975440;28;20049;-77
2020/12/20 09:15:39;;;;;;;39.15;19.77;;;5.90;99.90;;;;;;4991639;28;20054;-75
2020/12/20 09:18:20;;;;;;;37.60;19.35;;;5.90;99.90;;;;;;4993562;28;20026;-80
2020/12/20 09:20:46;;;;;;;35.10;18.53;;;5.90;99.90;;;;;;4994166;28;20033;-80
2020/12/20 09:23:24;;;;;;;39.58;19.60;;;6.00;99.90;;;;;;4994394;28;20026;-80
2020/12/20 09:25:58;;;;;;;37.90;18.27;;;6.00;99.90;;;;;;4993271;28;20073;-80
2020/12/20 09:28:29;;;;;;;32.78;17.60;;;6.00;99.90;;;;;;4993577;28;20023;-84
2020/12/20 09:30:58;;;;;;;34.28;18.08;;;6.00;99.90;;;;;;4992261;28;20061;-81
2020/12/20 09:33:36;;;;;;;42.97;20.48;;;6.00;99.90;;;;;;4992801;28;20018;-81
2020/12/20 09:36:15;;;;;;;42.83;20.35;;;6.00;99.90;;;;;;4994515;28;20030;-80
2020/12/20 09:39:01;;;;;;;37.58;18.48;;;6.00;99.90;;;;;;4994529;28;20026;-81
2020/12/20 09:41:29;;;;;;;38.75;19.05;;;6.00;99.90;;;;;;4992985;28;20053;-80
2020/12/20 09:43:55;;;;;;;35.05;17.67;;;6.00;99.90;;;;;;4993364;28;20031;-81
2020/12/20 09:46:30;;;;;;;36.17;17.60;;;6.00;99.90;;;;;;4993032;28;20023;-81
2020/12/20 09:48:58;;;;;;;33.03;17.27;;;6.00;99.90;;;;;;4992315;28;20026;-80
2020/12/20 09:51:25;;;;;;;37.58;19.52;;;6.00;99.90;;;;;;4991958;28;20362;-80
2020/12/20 09:53:52;;;;;;;35.45;17.60;;;6.00;99.90;;;;;;4992820;28;20097;-80
2020/12/20 09:56:18;;;;;;;36.60;16.17;;;6.00;99.90;;;;;;4992138;28;20037;-79
2020/12/20 09:58:47;;;;;;;33.10;15.80;;;6.00;99.90;;;;;;4992737;28;20082;-80
2020/12/20 10:01:25;;;;;;;32.67;16.25;;;6.00;99.90;;;;;;4992680;28;20082;-81
2020/12/20 10:03:51;;;;;;;33.40;16.67;;;6.00;99.90;;;;;;4992891;28;20038;-81
2020/12/20 10:06:17;;;;;;;34.38;17.95;;;6.00;99.90;;;;;;4990813;28;20373;-80
2020/12/20 10:08:44;;;;;;;32.83;16.95;;;6.00;99.90;;;;;;4990961;28;20037;-81
2020/12/20 10:11:11;;;;;;;30.67;17.58;;;6.00;99.90;;;;;;4991557;28;20461;-82
2020/12/20 10:13:37;;;;;;;29.92;16.38;;;6.00;99.90;;;;;;4991905;28;20050;-78
2020/12/20 10:16:03;;;;;;;33.95;14.30;;;6.00;99.90;;;;;;4992108;28;20027;-82
2020/12/20 10:18:29;;;;;;;26.40;14.93;;;6.00;99.90;;;;;;4991611;28;20181;-80
2020/12/20 10:20:55;;;;;;;25.48;14.95;;;5.90;99.90;;;;;;4991916;28;20029;-78
2020/12/20 10:23:21;;;;;;;27.48;15.73;;;6.00;99.90;;;;;;4974514;28;20400;-79
2020/12/20 10:25:47;;;;;;;29.85;17.33;;;6.00;99.90;;;;;;4993543;28;20022;-81
2020/12/20 10:28:12;;;;;;;27.13;16.02;;;6.10;99.90;;;;;;4994086;28;20027;-78
2020/12/20 10:30:39;;;;;;;31.33;17.88;;;6.10;99.90;;;;;;4995207;28;20101;-78
2020/12/20 10:33:05;;;;;;;27.70;17.35;;;6.10;99.90;;;;;;4977774;28;20057;-78
2020/12/20 10:35:35;;;;;;;25.58;15.25;;;6.10;99.90;;;;;;4995520;28;20054;-78
2020/12/20 10:38:01;;;;;;;27.80;15.70;;;6.10;99.90;;;;;;4995578;28;20038;-77
2020/12/20 10:40:27;;;;;;;32.10;18.13;;;6.10;99.90;;;;;;4977382;28;20032;-78
2020/12/20 10:42:53;;;;;;;22.27;14.55;;;6.10;99.90;;;;;;4995299;28;20049;-76
2020/12/20 10:45:19;;;;;;;21.98;14.27;;;6.20;99.90;;;;;;4994862;28;20023;-76
2020/12/20 10:47:45;;;;;;;20.15;13.27;;;6.20;99.90;;;;;;4993516;28;20045;-79
2020/12/20 10:50:11;;;;;;;17.15;11.00;;;6.20;99.90;;;;;;4994739;28;20097;-78
2020/12/20 10:52:37;;;;;;;15.25;10.50;;;6.20;99.90;;;;;;4995013;28;20045;-79
2020/12/20 10:55:04;;;;;;;14.32;9.40;;;6.30;99.90;;;;;;4994941;28;20018;-79
2020/12/20 10:57:30;;;;;;;14.57;9.50;;;6.40;99.90;;;;;;4994457;28;20076;-81
2020/12/20 10:59:56;;;;;;;16.45;10.20;;;6.50;99.90;;;;;;4994224;28;20019;-80
2020/12/20 11:02:22;;;;;;;14.10;9.38;;;6.60;99.90;;;;;;4994625;28;20033;-79
2020/12/20 11:04:48;;;;;;;15.77;10.35;;;6.60;99.90;;;;;;4994612;28;20026;-79
2020/12/20 11:07:15;;;;;;;14.23;9.50;;;6.70;99.90;;;;;;4994139;28;20034;-80
2020/12/20 11:09:41;;;;;;;16.50;11.35;;;6.70;99.90;;;;;;4994569;28;20113;-79
2020/12/20 11:12:07;;;;;;;17.23;11.25;;;6.60;99.90;;;;;;4994320;28;20110;-80
2020/12/20 11:14:33;;;;;;;19.52;11.35;;;6.60;99.90;;;;;;4976496;28;20060;-77
2020/12/20 11:16:59;;;;;;;22.63;14.15;;;6.50;99.90;;;;;;4993402;28;20436;-79
2020/12/20 11:19:25;;;;;;;23.55;12.55;;;6.50;99.90;;;;;;4994195;28;20406;-77
2020/12/20 11:21:54;;;;;;;21.75;12.80;;;6.50;99.90;;;;;;4993692;28;20097;-77
2020/12/20 11:24:21;;;;;;;19.30;11.98;;;6.50;99.90;;;;;;4994182;28;20032;-77
2020/12/20 11:26:49;;;;;;;18.92;11.38;;;6.50;99.90;;;;;;4993210;28;20073;-78
2020/12/20 11:29:16;;;;;;;16.55;11.13;;;6.40;99.90;;;;;;4994113;28;20026;-78
2020/12/20 11:31:43;;;;;;;19.75;11.88;;;6.40;99.90;;;;;;4993818;28;20018;-78
2020/12/20 11:34:09;;;;;;;21.38;13.63;;;6.40;99.90;;;;;;4993824;28;20025;-77
2020/12/20 11:36:36;;;;;;;18.80;11.48;;;6.30;99.90;;;;;;4992966;28;20081;-78
2020/12/20 11:39:07;;;;;;;21.38;12.98;;;6.30;99.90;;;;;;4993576;28;20498;-76
2020/12/20 11:41:33;;;;;;;24.73;14.52;;;6.20;99.90;;;;;;4992348;28;20061;-78
2020/12/20 11:43:59;;;;;;;26.05;15.75;;;6.20;99.90;;;;;;4993104;28;20110;-77
2020/12/20 11:46:26;;;;;;;31.85;18.60;;;6.20;99.90;;;;;;4993109;28;20057;-76
2020/12/20 11:48:52;;;;;;;41.30;25.40;;;6.20;99.90;;;;;;4992179;28;20033;-77
2020/12/20 11:51:19;;;;;;;38.05;22.45;;;6.20;99.90;;;;;;4993429;28;20018;-77
2020/12/20 11:53:45;;;;;;;32.17;19.35;;;6.20;99.90;;;;;;4993543;28;20026;-77
2020/12/20 11:56:12;;;;;;;30.17;18.67;;;6.20;99.90;;;;;;4992311;28;20469;-77
2020/12/20 11:58:38;;;;;;;26.83;15.48;;;6.20;99.90;;;;;;4993178;28;20073;-76
2020/12/20 12:01:08;;;;;;;26.33;15.25;;;6.10;99.90;;;;;;4993427;28;20029;-77
2020/12/20 12:03:34;;;;;;;30.75;16.95;;;6.10;99.90;;;;;;4993361;28;20029;-78
2020/12/20 12:06:01;;;;;;;27.77;15.55;;;6.00;99.90;;;;;;4993907;28;20581;-78
2020/12/20 12:08:27;;;;;;;22.33;13.85;;;6.00;99.90;;;;;;4976230;28;20169;-76
2020/12/20 12:10:53;;;;;;;25.80;15.00;;;6.00;99.90;;;;;;4975696;28;20113;-78
2020/12/20 12:13:20;;;;;;;28.90;15.85;;;6.00;99.90;;;;;;4993251;28;20050;-79
2020/12/20 12:15:46;;;;;;;28.13;16.40;;;5.90;99.90;;;;;;4993179;28;20030;-79
2020/12/20 12:18:12;;;;;;;30.13;16.48;;;5.80;99.90;;;;;;4993082;28;20100;-78
2020/12/20 12:20:38;;;;;;;32.38;17.70;;;5.80;99.90;;;;;;4992955;28;20521;-78
2020/12/20 12:23:05;;;;;;;37.00;19.17;;;5.80;99.90;;;;;;4993339;28;20053;-77
2020/12/20 12:25:31;;;;;;;31.83;17.58;;;5.80;99.90;;;;;;4991796;28;20022;-76
2020/12/20 12:27:57;;;;;;;38.92;19.30;;;5.80;99.90;;;;;;4993201;28;20030;-77
2020/12/20 12:30:23;;;;;;;42.30;20.20;;;5.80;99.90;;;;;;4992787;28;20040;-81
2020/12/20 12:32:52;;;;;;;38.35;19.55;;;5.70;99.90;;;;;;4991552;28;20054;-79
2020/12/20 12:35:19;;;;;;;37.65;19.17;;;5.70;99.90;;;;;;4993157;28;20495;-82
2020/12/20 12:37:45;;;;;;;38.70;20.38;;;5.70;99.90;;;;;;4993058;28;20034;-80
2020/12/20 12:40:10;;;;;;;42.17;21.25;;;5.70;99.90;;;;;;4993431;28;20073;-78